sensor_id;sensor_type;location;lat;lon;timestamp;pressure;altitude;pressure_sealevel;temperature;humidity
71457;BME280;59263;48.160;11.752;2023-02-16T00:00:30;96963.59;;;-3.33;100.00
71457;BME280;59263;48.160;11.752;2023-02-16T00:02:55;96961.84;;;-3.31;100.00
71457;BME280;59263;48.160;11.752;2023-02-16T00:07:49;96953.31;;;-3.27;100.00
71457;BME280;59263;48.160;11.752;2023-02-16T00:10:14;96953.31;;;-3.27;100.00
71457;BME280;59263;48.160;11.752;2023-02-16T00:12:39;96955.00;;;-3.26;100.00
71457;BME280;59263;48.160;11.752;2023-02-16T00:15:23;96935.09;;;-3.41;100.00
71457;BME280;59263;48.160;11.752;2023-02-16T00:17:49;96951.88;;;-3.37;100.00
71457;BME280;59263;48.160;11.752;2023-02-16T00:20:17;96947.53;;;-3.32;100.00
71457;BME280;59263;48.160;11.752;2023-02-16T00:22:43;96946.66;;;-3.31;100.00
71457;BME280;59263;48.160;11.752;2023-02-16T00:25:08;96941.75;;;-3.37;100.00
71457;BME280;59263;48.160;11.752;2023-02-16T00:27:35;96940.16;;;-3.41;100.00
71457;BME280;59263;48.160;11.752;2023-02-16T00:30:00;96932.63;;;-3.46;100.00
71457;BME280;59263;48.160;11.752;2023-02-16T00:32:26;96940.19;;;-3.44;100.00
71457;BME280;59263;48.160;11.752;2023-02-16T00:34:51;96941.81;;;-3.40;100.00
71457;BME280;59263;48.160;11.752;2023-02-16T00:37:18;96932.56;;;-3.41;100.00
71457;BME280;59263;48.160;11.752;2023-02-16T00:39:43;96931.69;;;-3.42;100.00
71457;BME280;59263;48.160;11.752;2023-02-16T00:42:17;96916.72;;;-3.52;100.00
71457;BME280;59263;48.160;11.752;2023-02-16T00:44:46;96918.38;;;-3.50;100.00
71457;BME280;59263;48.160;11.752;2023-02-16T00:49:56;96919.97;;;-3.44;100.00
71457;BME280;59263;48.160;11.752;2023-02-16T00:54:52;96906.44;;;-3.43;100.00
71457;BME280;59263;48.160;11.752;2023-02-16T00:57:18;96923.16;;;-3.36;100.00
71457;BME280;59263;48.160;11.752;2023-02-16T00:59:45;96913.09;;;-3.39;100.00
71457;BME280;59263;48.160;11.752;2023-02-16T01:02:11;96905.56;;;-3.42;100.00
71457;BME280;59263;48.160;11.752;2023-02-16T01:04:36;96901.28;;;-3.38;100.00
71457;BME280;59263;48.160;11.752;2023-02-16T01:07:09;96897.81;;;-3.34;100.00
71457;BME280;59263;48.160;11.752;2023-02-16T01:09:54;96891.16;;;-3.37;100.00
71457;BME280;59263;48.160;11.752;2023-02-16T01:12:37;96891.91;;;-3.33;100.00
71457;BME280;59263;48.160;11.752;2023-02-16T01:15:05;96898.66;;;-3.34;100.00
71457;BME280;59263;48.160;11.752;2023-02-16T01:17:34;96899.53;;;-3.35;100.00
71457;BME280;59263;48.160;11.752;2023-02-16T01:19:59;96875.25;;;-3.44;100.00
71457;BME280;59263;48.160;11.752;2023-02-16T01:22:24;96889.41;;;-3.35;100.00
71457;BME280;59263;48.160;11.752;2023-02-16T01:24:50;96889.41;;;-3.35;100.00
71457;BME280;59263;48.160;11.752;2023-02-16T01:27:16;96899.53;;;-3.35;100.00
71457;BME280;59263;48.160;11.752;2023-02-16T01:29:41;96892.19;;;-3.47;100.00
71457;BME280;59263;48.160;11.752;2023-02-16T01:32:10;96899.66;;;-3.41;100.00
71457;BME280;59263;48.160;11.752;2023-02-16T01:34:36;96907.22;;;-3.39;100.00
71457;BME280;59263;48.160;11.752;2023-02-16T01:37:02;96904.47;;;-3.29;100.00
71457;BME280;59263;48.160;11.752;2023-02-16T01:39:27;96906.19;;;-3.31;100.00
71457;BME280;59263;48.160;11.752;2023-02-16T01:42:05;96905.34;;;-3.30;100.00
71457;BME280;59263;48.160;11.752;2023-02-16T01:44:42;96910.41;;;-3.30;100.00
71457;BME280;59263;48.160;11.752;2023-02-16T01:49:50;96898.66;;;-3.34;100.00
71457;BME280;59263;48.160;11.752;2023-02-16T01:52:34;96902.09;;;-3.38;100.00
71457;BME280;59263;48.160;11.752;2023-02-16T02:00:10;96899.13;;;-3.55;100.00
71457;BME280;59263;48.160;11.752;2023-02-16T02:02:45;96884.88;;;-3.59;100.00
71457;BME280;59263;48.160;11.752;2023-02-16T02:05:29;96896.69;;;-3.61;100.00
71457;BME280;59263;48.160;11.752;2023-02-16T02:08:22;96903.41;;;-3.60;100.00
71457;BME280;59263;48.160;11.752;2023-02-16T02:10:57;96898.50;;;-3.67;100.00
71457;BME280;59263;48.160;11.752;2023-02-16T02:14:32;96901.03;;;-3.68;100.00
71457;BME280;59263;48.160;11.752;2023-02-16T02:16:26;96891.84;;;-3.72;100.00
71457;BME280;59263;48.160;11.752;2023-02-16T02:18:52;96890.19;;;-3.75;100.00
71457;BME280;59263;48.160;11.752;2023-02-16T02:21:36;96902.00;;;-3.74;100.00
71457;BME280;59263;48.160;11.752;2023-02-16T02:27:46;96900.41;;;-3.78;100.00
71457;BME280;59263;48.160;11.752;2023-02-16T02:30:38;96902.94;;;-3.79;100.00
71457;BME280;59263;48.160;11.752;2023-02-16T02:36:12;96896.25;;;-3.82;100.00
71457;BME280;59263;48.160;11.752;2023-02-16T02:39:18;96902.06;;;-3.77;100.00
71457;BME280;59263;48.160;11.752;2023-02-16T02:41:56;96889.66;;;-3.91;100.00
71457;BME280;59263;48.160;11.752;2023-02-16T02:44:29;96892.19;;;-3.89;100.00
71457;BME280;59263;48.160;11.752;2023-02-16T02:46:55;96877.22;;;-4.01;100.00
71457;BME280;59263;48.160;11.752;2023-02-16T02:49:21;96877.19;;;-3.98;100.00
71457;BME280;59263;48.160;11.752;2023-02-16T02:51:47;96883.97;;;-4.00;100.00
71457;BME280;59263;48.160;11.752;2023-02-16T02:54:42;96885.69;;;-4.02;100.00
71457;BME280;59263;48.160;11.752;2023-02-16T02:57:35;96876.59;;;-4.11;100.00
71457;BME280;59263;48.160;11.752;2023-02-16T03:00:42;96897.63;;;-4.10;100.00
71457;BME280;59263;48.160;11.752;2023-02-16T03:03:15;96892.63;;;-4.14;100.00
71457;BME280;59263;48.160;11.752;2023-02-16T03:06:23;96889.34;;;-4.19;100.00
71457;BME280;59263;48.160;11.752;2023-02-16T03:08:54;96886.06;;;-4.22;100.00
71457;BME280;59263;48.160;11.752;2023-02-16T03:11:23;96891.06;;;-4.21;100.00
71457;BME280;59263;48.160;11.752;2023-02-16T03:15:04;96877.69;;;-4.26;100.00
71457;BME280;59263;48.160;11.752;2023-02-16T03:17:15;96896.16;;;-4.24;100.00
71457;BME280;59263;48.160;11.752;2023-02-16T03:20:03;96887.78;;;-4.26;100.00
71457;BME280;59263;48.160;11.752;2023-02-16T03:22:49;96872.09;;;-4.43;100.00
71457;BME280;59263;48.160;11.752;2023-02-16T03:25:35;96895.50;;;-4.35;100.00
71457;BME280;59263;48.160;11.752;2023-02-16T03:28:23;96894.78;;;-4.40;100.00
71457;BME280;59263;48.160;11.752;2023-02-16T03:31:11;96899.00;;;-4.42;100.00
71457;BME280;59263;48.160;11.752;2023-02-16T03:33:38;96886.53;;;-4.51;100.00
71457;BME280;59263;48.160;11.752;2023-02-16T03:36:04;96889.84;;;-4.49;100.00
71457;BME280;59263;48.160;11.752;2023-02-16T03:38:33;96893.16;;;-4.44;100.00
71457;BME280;59263;48.160;11.752;2023-02-16T03:40:58;96874.78;;;-4.54;100.00
71457;BME280;59263;48.160;11.752;2023-02-16T03:43:25;96892.22;;;-4.39;100.00
71457;BME280;59263;48.160;11.752;2023-02-16T03:45:51;96879.63;;;-4.40;100.00
71457;BME280;59263;48.160;11.752;2023-02-16T03:48:17;96889.59;;;-4.34;100.00
71457;BME280;59263;48.160;11.752;2023-02-16T03:50:42;96894.50;;;-4.25;100.00
71457;BME280;59263;48.160;11.752;2023-02-16T03:53:07;96879.44;;;-4.31;100.00
71457;BME280;59263;48.160;11.752;2023-02-16T03:55:44;96880.22;;;-4.27;100.00
71457;BME280;59263;48.160;11.752;2023-02-16T03:58:12;96891.16;;;-4.27;100.00
71457;BME280;59263;48.160;11.752;2023-02-16T04:00:38;96896.28;;;-4.30;100.00
71457;BME280;59263;48.160;11.752;2023-02-16T04:03:05;96897.16;;;-4.34;100.00
71457;BME280;59263;48.160;11.752;2023-02-16T04:05:31;96908.16;;;-4.35;100.00
71457;BME280;59263;48.160;11.752;2023-02-16T04:07:56;96898.25;;;-4.47;100.00
71457;BME280;59263;48.160;11.752;2023-02-16T04:10:22;96902.72;;;-4.63;100.00
71457;BME280;59263;48.160;11.752;2023-02-16T04:12:47;96902.78;;;-4.66;100.00
71457;BME280;59263;48.160;11.752;2023-02-16T04:15:18;96922.06;;;-4.62;100.00
71457;BME280;59263;48.160;11.752;2023-02-16T04:17:45;96921.97;;;-4.57;100.00
71457;BME280;59263;48.160;11.752;2023-02-16T04:20:14;96915.28;;;-4.58;100.00
71457;BME280;59263;48.160;11.752;2023-02-16T04:22:39;96918.50;;;-4.50;100.00
71457;BME280;59263;48.160;11.752;2023-02-16T04:25:05;96915.19;;;-4.52;100.00
71457;BME280;59263;48.160;11.752;2023-02-16T04:27:31;96913.50;;;-4.53;100.00
71457;BME280;59263;48.160;11.752;2023-02-16T04:29:56;96896.81;;;-4.64;100.00
71457;BME280;59263;48.160;11.752;2023-02-16T04:32:22;96902.66;;;-4.60;100.00
71457;BME280;59263;48.160;11.752;2023-02-16T04:34:47;96906.13;;;-4.66;100.00
71457;BME280;59263;48.160;11.752;2023-02-16T04:37:12;96914.50;;;-4.64;100.00
71457;BME280;59263;48.160;11.752;2023-02-16T04:39:38;96908.69;;;-4.67;100.00
71457;BME280;59263;48.160;11.752;2023-02-16T04:42:03;96907.06;;;-4.73;100.00
71457;BME280;59263;48.160;11.752;2023-02-16T04:44:29;96915.44;;;-4.69;100.00
71457;BME280;59263;48.160;11.752;2023-02-16T04:46:55;96908.69;;;-4.69;100.00
71457;BME280;59263;48.160;11.752;2023-02-16T04:49:21;96911.22;;;-4.67;100.00
71457;BME280;59263;48.160;11.752;2023-02-16T04:51:46;96903.59;;;-4.66;100.00
71457;BME280;59263;48.160;11.752;2023-02-16T04:54:12;96895.97;;;-4.63;100.00
71457;BME280;59263;48.160;11.752;2023-02-16T04:56:37;96905.16;;;-4.58;100.00
71457;BME280;59263;48.160;11.752;2023-02-16T04:59:03;96892.72;;;-4.69;100.00
71457;BME280;59263;48.160;11.752;2023-02-16T05:01:28;96911.88;;;-4.57;100.00
71457;BME280;59263;48.160;11.752;2023-02-16T05:03:54;96901.00;;;-4.59;100.00
71457;BME280;59263;48.160;11.752;2023-02-16T05:06:19;96909.41;;;-4.60;100.00
71457;BME280;59263;48.160;11.752;2023-02-16T05:08:45;96907.00;;;-4.67;100.00
71457;BME280;59263;48.160;11.752;2023-02-16T05:11:11;96909.56;;;-4.70;100.00
71457;BME280;59263;48.160;11.752;2023-02-16T05:13:56;96912.16;;;-4.76;100.00
71457;BME280;59263;48.160;11.752;2023-02-16T05:16:40;96895.44;;;-4.81;100.00
71457;BME280;59263;48.160;11.752;2023-02-16T05:19:05;96898.84;;;-4.84;100.00
71457;BME280;59263;48.160;11.752;2023-02-16T05:21:30;96905.56;;;-4.86;100.00
71457;BME280;59263;48.160;11.752;2023-02-16T05:23:57;96908.06;;;-4.83;100.00
71457;BME280;59263;48.160;11.752;2023-02-16T05:26:23;96918.03;;;-4.74;100.00
71457;BME280;59263;48.160;11.752;2023-02-16T05:28:49;96900.34;;;-4.72;100.00
71457;BME280;59263;48.160;11.752;2023-02-16T05:31:15;96905.25;;;-4.65;100.00
71457;BME280;59263;48.160;11.752;2023-02-16T05:33:40;96901.88;;;-4.64;100.00
71457;BME280;59263;48.160;11.752;2023-02-16T05:36:06;96912.81;;;-4.63;100.00
71457;BME280;59263;48.160;11.752;2023-02-16T05:38:31;96902.78;;;-4.66;100.00
71457;BME280;59263;48.160;11.752;2023-02-16T05:40:58;96910.22;;;-4.60;100.00
71457;BME280;59263;48.160;11.752;2023-02-16T05:43:24;96910.34;;;-4.68;100.00
71457;BME280;59263;48.160;11.752;2023-02-16T05:45:49;96907.94;;;-4.75;100.00
71457;BME280;59263;48.160;11.752;2023-02-16T05:48:14;96917.22;;;-4.74;100.00
71457;BME280;59263;48.160;11.752;2023-02-16T05:50:40;96929.03;;;-4.78;100.00
71457;BME280;59263;48.160;11.752;2023-02-16T05:53:05;96922.50;;;-4.91;100.00
71457;BME280;59263;48.160;11.752;2023-02-16T05:55:30;96932.59;;;-4.91;100.00
71457;BME280;59263;48.160;11.752;2023-02-16T05:57:55;96937.59;;;-4.90;100.00
71457;BME280;59263;48.160;11.752;2023-02-16T06:00:21;96941.78;;;-4.85;100.00
71457;BME280;59263;48.160;11.752;2023-02-16T06:02:46;96920.09;;;-4.99;100.00
71457;BME280;59263;48.160;11.752;2023-02-16T06:05:12;96934.34;;;-4.96;100.00
71457;BME280;59263;48.160;11.752;2023-02-16T06:07:37;96949.34;;;-4.87;100.00
71457;BME280;59263;48.160;11.752;2023-02-16T06:10:03;96946.09;;;-4.95;100.00
71457;BME280;59263;48.160;11.752;2023-02-16T06:12:28;96937.78;;;-5.02;100.00
71457;BME280;59263;48.160;11.752;2023-02-16T06:14:56;96949.34;;;-4.87;100.00
71457;BME280;59263;48.160;11.752;2023-02-16T06:17:21;96933.41;;;-4.91;100.00
71457;BME280;59263;48.160;11.752;2023-02-16T06:19:47;96954.28;;;-4.78;100.00
71457;BME280;59263;48.160;11.752;2023-02-16T06:22:12;96938.38;;;-4.84;100.00
71457;BME280;59263;48.160;11.752;2023-02-16T06:24:37;96957.53;;;-4.70;100.00
71457;BME280;59263;48.160;11.752;2023-02-16T06:27:03;96945.69;;;-4.68;100.00
71457;BME280;59263;48.160;11.752;2023-02-16T06:29:29;96953.16;;;-4.58;100.00
71457;BME280;59263;48.160;11.752;2023-02-16T06:31:54;96932.94;;;-4.58;100.00
71457;BME280;59263;48.160;11.752;2023-02-16T06:34:20;96948.69;;;-4.41;100.00
71457;BME280;59263;48.160;11.752;2023-02-16T06:36:45;96948.56;;;-4.35;100.00
71457;BME280;59263;48.160;11.752;2023-02-16T06:39:10;96945.06;;;-4.28;100.00
71457;BME280;59263;48.160;11.752;2023-02-16T06:41:35;96931.66;;;-4.31;100.00
71457;BME280;59263;48.160;11.752;2023-02-16T06:44:07;96943.16;;;-4.14;100.00
71457;BME280;59263;48.160;11.752;2023-02-16T06:46:33;96944.69;;;-4.03;100.00
71457;BME280;59263;48.160;11.752;2023-02-16T06:48:59;96947.84;;;-3.92;100.00
71457;BME280;59263;48.160;11.752;2023-02-16T06:51:24;96966.06;;;-3.75;100.00
71457;BME280;59263;48.160;11.752;2023-02-16T06:53:50;96969.22;;;-3.63;100.00
71457;BME280;59263;48.160;11.752;2023-02-16T06:56:15;96967.31;;;-3.52;100.00
71457;BME280;59263;48.160;11.752;2023-02-16T06:58:40;96957.09;;;-3.46;100.00
71457;BME280;59263;48.160;11.752;2023-02-16T07:01:06;96969.47;;;-3.32;100.00
71457;BME280;59263;48.160;11.752;2023-02-16T07:03:31;96971.84;;;-3.25;100.00
71457;BME280;59263;48.160;11.752;2023-02-16T07:05:56;96972.56;;;-3.18;100.00
71457;BME280;59263;48.160;11.752;2023-02-16T07:08:22;96981.59;;;-3.06;100.00
71457;BME280;59263;48.160;11.752;2023-02-16T07:10:47;96976.44;;;-3.00;100.00
71457;BME280;59263;48.160;11.752;2023-02-16T07:13:13;96974.50;;;-2.89;100.00
71457;BME280;59263;48.160;11.752;2023-02-16T07:15:38;96983.47;;;-2.76;100.00
71457;BME280;59263;48.160;11.752;2023-02-16T07:18:04;96981.59;;;-2.66;100.00
71457;BME280;59263;48.160;11.752;2023-02-16T07:20:30;96978.88;;;-2.58;100.00
71457;BME280;59263;48.160;11.752;2023-02-16T07:22:55;96983.72;;;-2.49;100.00
71457;BME280;59263;48.160;11.752;2023-02-16T07:25:21;96982.63;;;-2.37;100.00
71457;BME280;59263;48.160;11.752;2023-02-16T07:27:46;96963.09;;;-2.34;100.00
71457;BME280;59263;48.160;11.752;2023-02-16T07:30:12;96977.88;;;-2.15;100.00
71457;BME280;59263;48.160;11.752;2023-02-16T07:32:38;96974.31;;;-2.08;100.00
71457;BME280;59263;48.160;11.752;2023-02-16T07:35:04;96984.19;;;-1.96;100.00
71457;BME280;59263;48.160;11.752;2023-02-16T07:37:29;96977.34;;;-1.94;100.00
71457;BME280;59263;48.160;11.752;2023-02-16T07:39:55;96987.09;;;-1.79;100.00
71457;BME280;59263;48.160;11.752;2023-02-16T07:42:20;96978.47;;;-1.72;100.00
71457;BME280;59263;48.160;11.752;2023-02-16T07:44:46;96982.50;;;-1.63;100.00
71457;BME280;59263;48.160;11.752;2023-02-16T07:47:11;96985.59;;;-1.53;100.00
71457;BME280;59263;48.160;11.752;2023-02-16T07:49:38;96987.81;;;-1.41;100.00
71457;BME280;59263;48.160;11.752;2023-02-16T07:52:04;96987.50;;;-1.29;100.00
71457;BME280;59263;48.160;11.752;2023-02-16T07:54:32;96985.44;;;-1.16;100.00
71457;BME280;59263;48.160;11.752;2023-02-16T07:56:58;96991.88;;;-1.04;100.00
71457;BME280;59263;48.160;11.752;2023-02-16T07:59:23;96998.19;;;-0.88;100.00
71457;BME280;59263;48.160;11.752;2023-02-16T08:01:48;96974.53;;;-0.90;100.00
71457;BME280;59263;48.160;11.752;2023-02-16T08:04:14;96981.81;;;-0.78;100.00
71457;BME280;59263;48.160;11.752;2023-02-16T08:06:39;96985.56;;;-0.61;100.00
71457;BME280;59263;48.160;11.752;2023-02-16T08:09:04;96975.22;;;-0.55;100.00
71457;BME280;59263;48.160;11.752;2023-02-16T08:11:30;96961.44;;;-0.48;100.00
71457;BME280;59263;48.160;11.752;2023-02-16T08:13:58;96959.41;;;-0.37;100.00
71457;BME280;59263;48.160;11.752;2023-02-16T08:16:26;96973.19;;;-0.17;100.00
71457;BME280;59263;48.160;11.752;2023-02-16T08:18:55;96989.66;;;-0.03;100.00
71457;BME280;59263;48.160;11.752;2023-02-16T08:21:22;96976.03;;;0.00;100.00
71457;BME280;59263;48.160;11.752;2023-02-16T08:23:53;96986.63;;;0.13;100.00
71457;BME280;59263;48.160;11.752;2023-02-16T08:26:20;96990.56;;;0.21;100.00
71457;BME280;59263;48.160;11.752;2023-02-16T08:28:47;96981.91;;;0.27;100.00
71457;BME280;59263;48.160;11.752;2023-02-16T08:31:26;96969.22;;;0.26;100.00
71457;BME280;59263;48.160;11.752;2023-02-16T08:33:54;96995.31;;;0.57;100.00
71457;BME280;59263;48.160;11.752;2023-02-16T08:36:40;96994.47;;;0.82;100.00
71457;BME280;59263;48.160;11.752;2023-02-16T08:39:09;96994.63;;;1.01;100.00
71457;BME280;59263;48.160;11.752;2023-02-16T08:41:36;96985.81;;;1.09;100.00
71457;BME280;59263;48.160;11.752;2023-02-16T08:44:03;96984.22;;;1.29;100.00
71457;BME280;59263;48.160;11.752;2023-02-16T08:46:30;96990.66;;;1.39;100.00
71457;BME280;59263;48.160;11.752;2023-02-16T08:48:59;96980.22;;;1.45;100.00
71457;BME280;59263;48.160;11.752;2023-02-16T08:51:26;96978.09;;;1.56;100.00
71457;BME280;59263;48.160;11.752;2023-02-16T08:53:53;96982.41;;;1.76;100.00
71457;BME280;59263;48.160;11.752;2023-02-16T08:56:20;96984.94;;;1.98;100.00
71457;BME280;59263;48.160;11.752;2023-02-16T08:58:45;96980.03;;;2.14;100.00
71457;BME280;59263;48.160;11.752;2023-02-16T09:01:12;96962.56;;;2.25;100.00
71457;BME280;59263;48.160;11.752;2023-02-16T09:03:39;96977.44;;;2.56;100.00
71457;BME280;59263;48.160;11.752;2023-02-16T09:06:08;96946.22;;;2.50;100.00
71457;BME280;59263;48.160;11.752;2023-02-16T09:08:34;96977.75;;;2.88;100.00
71457;BME280;59263;48.160;11.752;2023-02-16T09:11:05;96948.91;;;2.86;100.00
71457;BME280;59263;48.160;11.752;2023-02-16T09:13:35;96959.47;;;2.97;100.00
71457;BME280;59263;48.160;11.752;2023-02-16T09:16:03;96974.06;;;3.14;100.00
71457;BME280;59263;48.160;11.752;2023-02-16T09:18:29;96965.47;;;3.15;100.00
71457;BME280;59263;48.160;11.752;2023-02-16T09:21:01;96972.81;;;3.23;100.00
71457;BME280;59263;48.160;11.752;2023-02-16T09:23:26;96968.78;;;3.36;100.00
71457;BME280;59263;48.160;11.752;2023-02-16T09:25:52;96975.16;;;3.46;100.00
71457;BME280;59263;48.160;11.752;2023-02-16T09:28:17;96972.00;;;3.58;100.00
71457;BME280;59263;48.160;11.752;2023-02-16T09:30:43;96953.19;;;3.59;100.00
71457;BME280;59263;48.160;11.752;2023-02-16T09:33:08;96964.84;;;3.84;100.00
71457;BME280;59263;48.160;11.752;2023-02-16T09:35:37;96955.06;;;3.92;100.00
71457;BME280;59263;48.160;11.752;2023-02-16T09:38:03;96950.09;;;4.06;100.00
71457;BME280;59263;48.160;11.752;2023-02-16T09:40:29;96977.97;;;4.30;100.00
71457;BME280;59263;48.160;11.752;2023-02-16T09:45:27;96957.75;;;4.58;100.00
71457;BME280;59263;48.160;11.752;2023-02-16T09:47:55;96942.31;;;4.60;100.00
71457;BME280;59263;48.160;11.752;2023-02-16T09:50:25;96966.25;;;4.92;100.00
71457;BME280;59263;48.160;11.752;2023-02-16T09:55:42;96968.97;;;5.54;100.00
71457;BME280;59263;48.160;11.752;2023-02-16T09:58:21;96968.44;;;5.79;100.00
71457;BME280;59263;48.160;11.752;2023-02-16T10:01:03;96950.03;;;5.71;100.00
71457;BME280;59263;48.160;11.752;2023-02-16T10:06:52;96975.03;;;6.15;100.00
71457;BME280;59263;48.160;11.752;2023-02-16T10:09:22;96966.34;;;6.32;100.00
71457;BME280;59263;48.160;11.752;2023-02-16T10:12:12;96961.50;;;6.41;100.00
71457;BME280;59263;48.160;11.752;2023-02-16T10:14:44;96966.69;;;6.70;100.00
71457;BME280;59263;48.160;11.752;2023-02-16T10:17:24;96957.34;;;6.83;100.00
71457;BME280;59263;48.160;11.752;2023-02-16T10:20:01;96963.78;;;7.05;100.00
71457;BME280;59263;48.160;11.752;2023-02-16T10:22:38;96924.53;;;7.01;100.00
71457;BME280;59263;48.160;11.752;2023-02-16T10:25:16;96948.38;;;7.32;100.00
71457;BME280;59263;48.160;11.752;2023-02-16T10:27:46;96955.25;;;7.45;100.00
71457;BME280;59263;48.160;11.752;2023-02-16T10:30:17;96951.50;;;7.64;100.00
71457;BME280;59263;48.160;11.752;2023-02-16T10:33:20;96946.91;;;7.69;100.00
71457;BME280;59263;48.160;11.752;2023-02-16T10:35:57;96959.88;;;7.94;100.00
71457;BME280;59263;48.160;11.752;2023-02-16T10:41:32;96955.25;;;7.99;100.00
71457;BME280;59263;48.160;11.752;2023-02-16T10:44:12;96958.19;;;8.20;100.00
71457;BME280;59263;48.160;11.752;2023-02-16T10:46:44;96952.41;;;8.17;100.00
71457;BME280;59263;48.160;11.752;2023-02-16T10:49:13;96929.06;;;8.06;100.00
71457;BME280;59263;48.160;11.752;2023-02-16T10:51:43;96942.72;;;8.33;100.00
71457;BME280;59263;48.160;11.752;2023-02-16T10:54:28;96915.50;;;8.29;100.00
71457;BME280;59263;48.160;11.752;2023-02-16T10:57:00;96946.72;;;8.64;100.00
71457;BME280;59263;48.160;11.752;2023-02-16T10:59:36;96942.78;;;8.84;100.00
71457;BME280;59263;48.160;11.752;2023-02-16T11:02:27;96927.09;;;8.87;100.00
71457;BME280;59263;48.160;11.752;2023-02-16T11:04:57;96913.75;;;8.93;100.00
71457;BME280;59263;48.160;11.752;2023-02-16T11:07:27;96931.78;;;9.19;100.00
71457;BME280;59263;48.160;11.752;2023-02-16T11:09:56;96933.00;;;9.26;100.00
71457;BME280;59263;48.160;11.752;2023-02-16T11:12:25;96931.97;;;9.29;100.00
71457;BME280;59263;48.160;11.752;2023-02-16T11:14:55;96930.19;;;9.29;100.00
71457;BME280;59263;48.160;11.752;2023-02-16T11:17:22;96929.50;;;9.27;100.00
71457;BME280;59263;48.160;11.752;2023-02-16T11:19:55;96907.31;;;9.12;100.00
71457;BME280;59263;48.160;11.752;2023-02-16T11:22:39;96920.59;;;9.31;100.00
71457;BME280;59263;48.160;11.752;2023-02-16T11:25:22;96915.78;;;9.51;100.00
71457;BME280;59263;48.160;11.752;2023-02-16T11:27:58;96906.19;;;9.64;100.00
71457;BME280;59263;48.160;11.752;2023-02-16T11:30:33;96909.13;;;9.83;100.00
71457;BME280;59263;48.160;11.752;2023-02-16T11:33:20;96896.03;;;9.74;100.00
71457;BME280;59263;48.160;11.752;2023-02-16T11:35:46;96861.25;;;9.42;100.00
71457;BME280;59263;48.160;11.752;2023-02-16T11:40:56;96869.22;;;9.39;100.00
71457;BME280;59263;48.160;11.752;2023-02-16T11:43:28;96858.97;;;9.38;100.00
71457;BME280;59263;48.160;11.752;2023-02-16T11:46:01;96865.53;;;9.55;100.00
71457;BME280;59263;48.160;11.752;2023-02-16T11:48:30;96881.81;;;9.68;100.00
71457;BME280;59263;48.160;11.752;2023-02-16T11:51:05;96887.03;;;9.79;100.00
71457;BME280;59263;48.160;11.752;2023-02-16T11:53:34;96886.06;;;9.80;100.00
71457;BME280;59263;48.160;11.752;2023-02-16T11:56:22;96871.31;;;9.93;100.00
71457;BME280;59263;48.160;11.752;2023-02-16T11:59:06;96851.47;;;9.94;100.00
71457;BME280;59263;48.160;11.752;2023-02-16T12:10:06;96851.69;;;10.37;100.00
71457;BME280;59263;48.160;11.752;2023-02-16T12:12:35;96850.03;;;10.48;100.00
71457;BME280;59263;48.160;11.752;2023-02-16T12:17:52;96854.28;;;10.71;100.00
71457;BME280;59263;48.160;11.752;2023-02-16T12:23:34;96847.69;;;10.78;100.00
71457;BME280;59263;48.160;11.752;2023-02-16T12:28:41;96840.63;;;10.80;100.00
71457;BME280;59263;48.160;11.752;2023-02-16T12:34:20;96806.75;;;10.72;100.00
71457;BME280;59263;48.160;11.752;2023-02-16T12:37:19;96823.78;;;10.97;100.00
71457;BME280;59263;48.160;11.752;2023-02-16T12:42:40;96822.72;;;10.88;100.00
71457;BME280;59263;48.160;11.752;2023-02-16T12:45:12;96794.50;;;10.74;100.00
71457;BME280;59263;48.160;11.752;2023-02-16T12:47:53;96823.28;;;11.03;100.00
71457;BME280;59263;48.160;11.752;2023-02-16T12:50:23;96806.69;;;11.06;100.00
71457;BME280;59263;48.160;11.752;2023-02-16T12:53:12;96797.59;;;11.11;100.00
71457;BME280;59263;48.160;11.752;2023-02-16T12:55:48;96811.63;;;11.20;100.00
71457;BME280;59263;48.160;11.752;2023-02-16T12:58:19;96804.88;;;11.29;100.00
71457;BME280;59263;48.160;11.752;2023-02-16T13:00:54;96805.53;;;11.42;100.00
71457;BME280;59263;48.160;11.752;2023-02-16T13:03:43;96796.44;;;11.48;100.00
71457;BME280;59263;48.160;11.752;2023-02-16T13:06:34;96795.13;;;11.53;100.00
71457;BME280;59263;48.160;11.752;2023-02-16T13:09:18;96799.59;;;11.51;100.00
71457;BME280;59263;48.160;11.752;2023-02-16T13:11:52;96797.13;;;11.50;87.18
71457;BME280;59263;48.160;11.752;2023-02-16T13:14:22;96787.69;;;11.49;100.00
71457;BME280;59263;48.160;11.752;2023-02-16T13:16:53;96796.13;;;11.62;95.56
71457;BME280;59263;48.160;11.752;2023-02-16T13:19:20;96783.28;;;11.60;90.23
71457;BME280;59263;48.160;11.752;2023-02-16T13:27:27;96778.19;;;11.70;86.89
71457;BME280;59263;48.160;11.752;2023-02-16T13:45:45;96778.88;;;11.72;80.38
71457;BME280;59263;48.160;11.752;2023-02-16T13:49:00;96775.53;;;11.81;79.77
71457;BME280;59263;48.160;11.752;2023-02-16T13:51:04;96761.16;;;11.77;83.35
71457;BME280;59263;48.160;11.752;2023-02-16T13:53:39;96771.75;;;11.85;78.79
71457;BME280;59263;48.160;11.752;2023-02-16T13:58:53;96769.38;;;11.82;78.40
71457;BME280;59263;48.160;11.752;2023-02-16T14:03:59;96756.41;;;11.82;80.24
71457;BME280;59263;48.160;11.752;2023-02-16T14:06:30;96765.25;;;11.91;78.05
71457;BME280;59263;48.160;11.752;2023-02-16T14:14:37;96752.84;;;11.95;75.70
71457;BME280;59263;48.160;11.752;2023-02-16T14:19:47;96748.16;;;12.19;74.14
71457;BME280;59263;48.160;11.752;2023-02-16T14:22:17;96752.44;;;12.70;75.16
71457;BME280;59263;48.160;11.752;2023-02-16T14:24:42;96740.72;;;12.86;60.94
71457;BME280;59263;48.160;11.752;2023-02-16T14:27:11;96750.78;;;13.39;56.14
71457;BME280;59263;48.160;11.752;2023-02-16T14:29:43;96743.88;;;14.33;47.25
71457;BME280;59263;48.160;11.752;2023-02-16T14:32:28;96740.69;;;14.39;48.45
71457;BME280;59263;48.160;11.752;2023-02-16T14:35:04;96730.84;;;14.70;42.96